Flight Track Log - Related Links

Times and Time Zones

All times are in EDT time to prevent confusion due to time zone crossing. See the RPA3457 flight status page for this flight to view local times or setup timezone preferences in your user account.

Time Position Orientation Groundspeed Altitude Reporting Facility
EDT Latitude Longitude Course Direction KTS MPH feet Rate Location/Type
Wed 07:58:00 AM 44.0796 -73.2952 195° South  Level FlightAware Approximate
Wed 07:58:50 AM 44.3458 -73.2703 198° South 286 329 9,100  Level Boston Center
Wed 07:59:00 AM 43.9818 -73.3283 194° South  Level FlightAware Approximate
Wed 07:59:50 AM 44.2644 -73.3011 195° South 298 343 11,100  Level Boston Center
Wed 08:00:00 AM 43.8842 -73.3622 195° South  Level FlightAware Approximate
Wed 08:00:50 AM 44.1642 -73.3344 193° South 327 376 14,400  Level Boston Center
Wed 08:01:00 AM 43.7871 -73.3987 195° South  Level FlightAware Approximate
Wed 08:01:51 AM 44.0639 -73.3675 193° South 349 402 16,800  Level Boston Center
Wed 08:02:00 AM 43.6899 -73.4351 195° South  Level FlightAware Approximate
Wed 08:02:49 AM 43.9636 -73.4064 196° South 377 434 18,000  Level Boston Center
Wed 08:03:00 AM 43.5937 -73.4756 198° South  Level FlightAware Approximate
Wed 08:03:49 AM 43.8897 -73.4917 220° Southwest 357 411 20,200  Level Boston Center
Wed 08:04:00 AM 43.4981 -73.5191 198° South  Level FlightAware Approximate
Wed 08:04:49 AM 43.7853 -73.5272 194° South 362 417 22,500  Level Boston Center
Wed 08:05:51 AM 43.6847 -73.5683 196° South 384 442 23,700 1,650 Climbing Boston Center
Wed 08:06:49 AM 43.5764 -73.5864 187° South 409 471 25,800 1,850 Climbing Boston Center
Wed 08:07:51 AM 43.4572 -73.6186 191° South 421 484 27,400 1,073 Climbing Boston Center
Wed 08:08:52 AM 43.3403 -73.6506 191° South 431 496 28,000 303 Climbing Boston Center
Wed 08:09:50 AM 43.2169 -73.6850 192° South 442 509 28,000  Level Boston Center
Wed 08:10:49 AM 43.0894 -73.7139 189° South 453 521 28,000  Level Boston Center
Wed 08:11:49 AM 42.9639 -73.7481 191° South 458 527 28,000  Level Boston Center
Wed 08:12:50 AM 42.8386 -73.7822 191° South 463 533 28,000  Level Boston Center
Wed 08:13:50 AM 42.7194 -73.7994 186° South 456 525 28,000  Level Boston Center
Wed 08:14:51 AM 42.6072 -73.7856 175° South 432 497 28,000  Level Boston Center
Wed 08:15:51 AM 42.5011 -73.7692 174° South 400 460 28,000  Level Boston Center
Wed 08:16:49 AM 42.3908 -73.7528 174° South 400 460 28,000  Level Boston Center
Wed 08:17:49 AM 42.2825 -73.7339 173° South 405 466 28,000  Level Boston Center
Wed 08:18:49 AM 42.1681 -73.7203 175° South 405 466 28,000  Level Boston Center
Wed 08:19:49 AM 42.0578 -73.7011 173° South 405 466 28,000  Level Boston Center
Wed 08:21:46 AM 41.8258 -73.6661 174° South 417 480 28,000  Level New York Center
Wed 08:22:47 AM 41.7131 -73.6806 185° South 417 480 28,000  Level New York Center
Wed 08:23:48 AM 41.5997 -73.7089 191° South 441 507 28,000  Level New York Center
Wed 08:24:48 AM 41.4783 -73.7339 189° South 455 524 28,000  Level New York Center
Wed 08:25:47 AM 41.3528 -73.7589 189° South 455 524 28,000  Level New York Center
Wed 08:26:47 AM 41.2336 -73.7839 189° South 444 511 28,000  Level New York Center
Wed 08:27:45 AM 41.1192 -73.8614 207° Southwest 436 502 28,000  Level New York Center
Wed 08:28:46 AM 41.0494 -73.9764 231° Southwest 405 466 28,000  Level New York Center
Wed 08:29:46 AM 40.9794 -74.0914 231° Southwest 412 474 28,000  Level New York Center
Wed 08:30:48 AM 40.9075 -74.2086 231° Southwest 417 480 28,000  Level New York Center
Wed 08:31:46 AM 40.8353 -74.3228 230° Southwest 417 480 28,000  Level New York Center
Wed 08:32:47 AM 40.7669 -74.4425 233° Southwest 417 480 28,000 -98 Level New York Center
Wed 08:33:48 AM 40.6967 -74.5564 231° Southwest 412 474 27,800 -800 Descending New York Center
Wed 08:34:47 AM 40.6261 -74.6756 232° Southwest 412 474 26,400 -1,400 Descending New York Center
Wed 08:35:48 AM 40.5558 -74.7836 229° Southwest 407 468 25,000 -1,400 Descending New York Center
Wed 08:36:47 AM 40.4792 -74.8936 228° Southwest 407 468 23,600 -1,412 Descending New York Center
Wed 08:37:47 AM 40.4047 -74.9983 227° Southwest 402 463 22,200 -1,388 Descending New York Center
Wed 08:38:48 AM 40.3322 -75.1000 227° Southwest 397 457 20,800 -1,109 Descending New York Center
Wed 08:39:46 AM 40.2617 -75.2017 228° Southwest 392 451 20,000 -403 Descending New York Center
Wed 08:40:47 AM 40.1892 -75.3003 226° Southwest 392 451 20,000  Level New York Center
Wed 08:41:46 AM 40.1167 -75.3989 226° Southwest 387 445 20,000  Level New York Center
Wed 08:42:47 AM 40.0436 -75.4997 227° Southwest 387 445 20,000  Level New York Center
Wed 08:43:46 AM 39.9750 -75.5981 228° Southwest 387 445 20,000  Level New York Center
Wed 08:44:48 AM 39.9064 -75.6989 228° Southwest 382 440 20,000  Level New York Center
Wed 08:45:48 AM 39.8472 -75.8136 236° Southwest 382 440 20,000  Level New York Center
Wed 08:46:46 AM 39.7883 -75.9256 236° Southwest 382 440 20,000 -101 Level New York Center
Wed 08:47:47 AM 39.7314 -76.0347 236° Southwest 382 440 19,800 -992 Descending New York Center
Wed 08:48:47 AM 39.6769 -76.1306 234° Southwest 377 434 18,000 -1,934 Descending New York Center
Wed 08:49:48 AM 39.6172 -76.2472 236° Southwest 369 425 15,900 -2,000 Descending New York Center
Wed 08:51:14 AM 39.5000 -76.3667 218° Southwest 360 414 13,100 -1,671 Descending Potomac TRACON
Wed 08:52:08 AM 39.4333 -76.4333 218° Southwest 344 396 12,000 -611 Descending Potomac TRACON
Wed 08:53:02 AM 39.3667 -76.5000 218° Southwest 348 400 12,000 -474 Level Potomac TRACON
Wed 08:54:02 AM 39.2833 -76.5667 212° Southwest 347 399 11,100 -1,000 Descending Potomac TRACON
Wed 08:55:02 AM 39.2167 -76.6333 218° Southwest 302 348 10,000 -550 Descending Potomac TRACON
Wed 08:56:02 AM 39.1500 -76.6833 210° Southwest 293 337 10,000  Level Potomac TRACON
Wed 08:56:56 AM 39.1000 -76.7500 226° Southwest 291 335 10,000 -105 Level Potomac TRACON
Wed 08:57:56 AM 39.0333 -76.8167 218° Southwest 291 335 9,800 -900 Descending Potomac TRACON
Wed 08:58:56 AM 38.9667 -76.9000 224° Southwest 283 326 8,200 -1,686 Descending Potomac TRACON
Wed 08:59:57 AM 38.9000 -76.9500 210° Southwest 289 333 6,400 -1,148 Descending Potomac TRACON
Wed 09:00:51 AM 38.8333 -76.9500 180° South 299 344 6,000 -263 Descending Potomac TRACON
Wed 09:01:51 AM 38.7667 -76.9500 180° South 244 281 5,900 -500 Descending Potomac TRACON
Wed 09:02:51 AM 38.7000 -76.9333 169° South 209 241 5,000 -474 Descending Potomac TRACON
Wed 09:03:45 AM 38.6500 -76.9333 180° South 193 222 5,000  Level Potomac TRACON
Wed 09:04:45 AM 38.6000 -76.9333 180° South 195 224 5,000  Level Potomac TRACON
Wed 09:05:39 AM 38.5500 -76.9167 165° South 196 226 5,000 -105 Level Potomac TRACON
Wed 09:06:39 AM 38.5000 -76.9167 180° South 190 219 4,800 -550 Descending Potomac TRACON
Wed 09:07:39 AM 38.4667 -76.9500 218° Southwest 190 219 3,900 -421 Descending Potomac TRACON
Wed 09:08:33 AM 38.4500 -77.0000 247° West 181 208 4,000 53 Climbing Potomac TRACON
Wed 09:09:33 AM 38.4833 -77.0167 339° North 178 205 4,000  Level Potomac TRACON
Wed 09:10:33 AM 38.5333 -77.0167 360° North 179 206 4,000 -100 Level Potomac TRACON
Wed 09:11:33 AM 38.5833 -77.0167 360° North 175 201 3,800 -400 Descending Potomac TRACON
Wed 09:12:33 AM 38.6333 -77.0167 360° North 174 200 3,200 -600 Descending Potomac TRACON
Wed 09:13:33 AM 38.6833 -77.0333 345° North 171 197 2,600 -496 Descending Potomac TRACON
Wed 09:14:34 AM 38.7167 -77.0333 360° North 173 199 2,200 -393 Descending Potomac TRACON

Login

Don't have an account? Register now (free) for customized features, flight alerts, and more!